Walum, North Dakota
Current Conditions -  °F | °C
As of 3:55 PM on Thursday 27 Nov 2014 (Local Time) from KBAC Reporting Station
Overcast Overcast  
Wind Chill: -23°   Ceiling: 6000
Heat Index: -15°   Visibility: 10mi
Dew Point: -19°   Wind: 10mph
Humidity: 72%   Direction: 150°SSE
Pressure: 30.22"   Gusts: NA
Location:  47.2843°N, 98.1073°W
Report Text: KBAC 272155Z AUTO 15009KT 10SM FEW033 SCT049 OVC060 M15/M19 A3022 RMK AO2
Loading
Personal Weather Stations






























Interactive Weather Map New forecast layout! Learn more

10-Day Weather Forecast

Advertisements
Track Severe Weather on mobile